Elliot Chaparral Reserve, California Weather observations

Data are for 10 minute period ending at time listed.
 Day   Time   Solar   Ave.   Ave.  Ave.  Vector  Max.   Baro.   Total    
  of    of     Rad.   Air    Rel.  Wind   Wind   Wind  Press.  Precip.   
Year   Day            Temp.  Hum.  Speed  Dir.   Gust                    
2016   (PST)  Kw/m2    F      %     mph   deg.    mph    mb.     in.     
-------------------------------------------------------------------------
 273   17:00   0.08   82.4    41    6.8   304     9.0   987.2    0.00 
 273   17:10   0.05   80.9    42    7.7   310     9.7   987.3    0.00 
 273   17:20   0.02   79.8    45    8.0   318    11.1   987.3    0.00 
 273   17:30   0.01   78.0    48    8.1   319    10.2   987.3    0.00 
 273   17:40   0.00   76.4    48    9.2   330    12.0   987.4    0.00 
 273   17:50   0.00   75.2    49    9.5   334    12.6   987.5    0.00 
 273   18:00   0.00   74.3    52   10.2   335    12.8   987.6    0.00 
 273   18:10   0.00   73.7    55    8.9   339    11.8   987.6    0.00 
 273   18:20   0.00   73.3    57    8.1   341     9.7   987.6    0.00 
 273   18:30   0.00   73.0    58    7.5   332     9.0   987.7    0.00 
 273   18:40   0.00   72.7    57    8.3   329    10.0   987.7    0.00 
 273   18:50   0.00   72.7    59    7.7   339     9.3   987.8    0.00 
 273   19:00   0.00   72.4    60    6.5   334     8.5   987.8    0.00 
 273   19:10   0.00   72.3    61    6.9   343     8.8   987.9    0.00 
 273   19:20   0.00   72.0    63    6.6   338     8.4   988.0    0.00 
 273   19:30   0.00   71.9    62    7.2   344    10.4   988.2    0.00 
 273   19:40   0.00   71.5    63    6.5   349     8.6   988.2    0.00 
 273   19:50   0.00   72.0    58    5.4   355     8.3   988.3    0.00 
 273   20:00   0.00   72.3    57    6.2   349     8.2   988.4    0.00 
 273   20:10   0.00   72.6    52    5.5   358     7.5   988.5    0.00 
 273   20:20   0.00   73.3    47    5.4    12     7.7   988.5    0.00 
 273   20:30   0.00   73.9    44    6.1    17     8.0   988.5    0.00 
 273   20:40   0.00   73.7    47    7.1    12     8.0   988.4    0.00 
 273   20:50   0.00   73.3    50    7.4    11     8.6   988.4    0.00 
 273   21:00   0.00   73.6    49    8.1    12     8.6   988.4    0.00 
 273   21:10   0.00   73.6    51    6.9    29     8.7   988.4    0.00 
 273   21:20   0.00   73.4    52    5.7    38     7.6   988.4    0.00 
 273   21:30   0.00   72.9    53    5.8    50     7.4   988.4    0.00 
 273   21:40   0.00   72.2    55    4.8    56     6.3   988.5    0.00 
 273   21:50   0.00   72.9    53    6.5    44     7.8   988.5    0.00 
 273   22:00   0.00   74.2    47    7.4    32     8.1   988.5    0.00 
 273   22:10   0.00   74.2    49    6.1    23     7.5   988.5    0.00 
 273   22:20   0.00   73.0    52    2.9    44     4.7   988.6    0.00 
 273   22:30   0.00   72.9    52    0.7    59     3.3   988.6    0.00 
 273   22:40   0.00   72.8    52    2.1    59     3.4   988.5    0.00 
 273   22:50   0.00   73.0    51    0.4    30     2.0   988.4    0.00 
 273   23:00   0.00   72.8    54    2.1   311     4.4   988.4    0.00 
 273   23:10   0.00   71.5    57    3.9   329     4.6   988.4    0.00 
 273   23:20   0.00   71.7    56    2.8     7     3.5   988.4    0.00 
 273   23:30   0.00   72.4    55    2.8    10     3.3   988.3    0.00 
 273   23:40   0.00   72.4    53    2.5    72     3.4   988.1    0.00 
 273   23:50   0.00   73.0    50    1.4    95     2.8   988.2    0.00 
 274    0:00   0.00   73.1    52    2.1   293     3.7   988.2    0.00 
 274    0:10   0.00   72.1    54    2.8   325     3.5   988.2    0.00 
 274    0:20   0.00   71.8    54    2.0   344     2.7   988.2    0.00 
 274    0:30   0.00   71.5    54    3.0    44     3.7   988.1    0.00 
 274    0:40   0.00   71.5    54    2.6    74     3.5   988.2    0.00 
 274    0:50   0.00   72.2    53    1.3   229     2.4   988.3    0.00 
 274    1:00   0.00   71.3    55    1.8   163     2.6   988.3    0.00 
 274    1:10   0.00   70.4    57    3.0   111     3.6   988.2    0.00 
 274    1:20   0.00   71.4    57    2.9    98     3.6   988.2    0.00 
 274    1:30   0.00   71.8    56    3.0    96     3.7   988.1    0.00 
 274    1:40   0.00   72.5    55    2.1   103     3.1   988.1    0.00 
 274    1:50   0.00   72.7    55    2.3    81     3.2   987.9    0.00 
 274    2:00   0.00   73.1    56    0.1    75     1.1   987.9    0.00 
 274    2:10   0.00   70.9    60    3.8   337     6.1   987.9    0.00 
 274    2:20   0.00   69.6    63    2.7   356     4.2   987.8    0.00 
 274    2:30   0.00   69.9    62    3.0   350     3.9   987.8    0.00 
 274    2:40   0.00   70.1    62    1.9   355     2.3   987.8    0.00 
 274    2:50   0.00   69.5    64    2.1   354     2.9   987.8    0.00 
 274    3:00   0.00   69.1    64    2.1    40     3.0   987.7    0.00 
 274    3:10   0.00   70.0    62    1.7    80     2.2   987.7    0.00 
 274    3:20   0.00   70.4    61    1.0   340     2.9   987.7    0.00 
 274    3:30   0.00   70.0    62    3.0    25     3.8   987.7    0.00 
 274    3:40   0.00   70.2    62    3.0    50     4.7   987.7    0.00 
 274    3:50   0.00   70.1    61    5.7    52     6.6   987.7    0.00 
 274    4:00   0.00   71.0    58    4.8    49     6.4   987.8    0.00 
 274    4:10   0.00   70.7    59    4.2    63     5.6   987.7    0.00 
 274    4:20   0.00   70.0    60    4.8    58     5.6   987.7    0.00 
 274    4:30   0.00   70.8    57    5.8    59     7.2   987.7    0.00 
 274    4:40   0.00   70.6    57    5.2    61     6.2   987.7    0.00 
 274    4:50   0.00   71.3    54    5.0    55     6.0   987.6    0.00 
 274    5:00   0.00   73.1    50    4.9    46     5.7   987.7    0.00 
 274    5:10   0.00   73.0    50    4.0    62     5.3   987.8    0.00 
 274    5:20   0.00   71.8    52    3.4    61     5.0   987.8    0.00 
 274    5:30   0.00   71.5    53    0.7   205     1.8   987.9    0.00 
 274    5:40   0.00   71.3    54    0.8   183     1.2   987.9    0.00 
 274    5:50   0.00   71.0    54    1.6   113     3.4   987.9    0.00 
 274    6:00   0.01   71.5    54    3.2    80     3.7   988.0    0.00 
 274    6:10   0.04   73.7    50    2.3    75     2.7   988.1    0.00 
 274    6:20   0.07   75.8    47    0.9    85     2.2   988.1    0.00 
 274    6:30   0.10   77.3    45    0.1   130     0.9   988.2    0.00 
 274    6:40   0.12   74.9    50    1.9   288     2.9   988.3    0.00 
 274    6:50   0.16   73.7    52    2.6   336     3.0   988.4    0.00 
 274    7:00   0.19   76.3    48    0.8    70     2.1   988.4    0.00 
 274    7:10   0.23   79.0    45    0.2   259     1.0   988.5    0.00 
 274    7:20   0.26   76.8    50    1.1   315     2.3   988.5    0.00 
 274    7:30   0.29   76.9    51    2.5   306     3.5   988.5    0.00 
 274    7:40   0.33   77.3    51    2.1   288     3.6   988.6    0.00 
 274    7:50   0.36   78.3    48    2.1   289     3.1   988.6    0.00 
 274    8:00   0.39   79.1    47    2.7   279     4.7   988.7    0.00 
 274    8:10   0.42   79.0    46    3.4   270     5.6   988.6    0.00 
 274    8:20   0.45   79.6    44    3.1   276     5.3   988.7    0.00 
 274    8:30   0.48   79.8    43    3.6   283     6.3   988.7    0.00 
 274    8:40   0.51   80.0    43    4.5   291     6.4   988.7    0.00 
 274    8:50   0.54   80.9    43    4.2   294     6.5   988.7    0.00 
 274    9:00   0.57   81.6    42    4.5   279     7.1   988.7    0.00 
 274    9:10   0.59   82.2    41    4.4   273     6.7   988.6    0.00 
 274    9:20   0.61   82.7    39    4.9   257     8.1   988.6    0.00 
 274    9:30   0.64   83.1    37    4.9   263     7.7   988.6    0.00 
 274    9:40   0.66   83.6    37    6.1   276     9.8   988.5    0.00 
 274    9:50   0.68   83.4    36    6.6   286    11.0   988.4    0.00 
 274   10:00   0.70   84.9    34    7.1   275    11.0   988.2    0.00 
 274   10:10   0.72   85.3    33    7.7   276    10.9   988.1    0.00 
 274   10:20   0.73   85.2    35    8.0   279    11.2   988.0    0.00 
 274   10:30   0.74   86.0    35    8.0   276    12.8   987.9    0.00 
 274   10:40   0.75   86.7    34    8.2   267    11.0   987.9    0.00 
 274   10:50   0.76   86.5    34    8.8   286    12.7   987.8    0.00 
 274   11:00   0.77   86.3    34    7.6   277    11.3   987.7    0.00 
 274   11:10   0.78   87.3    32    8.6   288    13.2   987.5    0.00 
 274   11:20   0.78   87.0    31    9.4   302    14.5   987.3    0.00 
 274   11:30   0.76   87.3    33   10.6   278    15.4   987.2    0.00 
 274   11:40   0.79   86.9    34   12.4   278    16.0   987.1    0.00 
 274   11:50   0.79   86.8    34   12.1   280    16.6   987.0    0.00 
 274   12:00   0.78   86.5    33   11.6   282    16.2   987.0    0.00 
 274   12:10   0.78   86.3    33   11.6   281    15.6   986.9    0.00 
 274   12:20   0.77   86.7    34   12.2   279    16.5   986.8    0.00 
 274   12:30   0.77   85.5    36   13.4   281    17.8   986.6    0.00 
 274   12:40   0.75   85.3    35   13.4   284    17.0   986.5    0.00 
 274   12:50   0.74   85.4    35   13.4   283    17.5   986.4    0.00 
 274   13:00   0.73   85.4    34   12.6   291    16.4   986.2    0.00 
 274   13:10   0.71   85.3    34   13.7   300    17.4   986.0    0.00 
 274   13:20   0.70   85.5    34   11.7   301    16.7   985.9    0.00 
 274   13:30   0.68   86.8    32   11.8   296    15.1   985.8    0.00 
 274   13:40   0.66   86.5    31   12.5   305    18.0   985.7    0.00 
 274   13:50   0.64   85.5    32   13.4   311    19.1   985.6    0.00 
 274   14:00   0.61   84.7    33   14.6   309    17.9   985.6    0.00 
 274   14:10   0.59   84.8    35   11.9   306    16.1   985.6    0.00 
 274   14:20   0.57   86.3    33   11.3   293    17.3   985.6    0.00 
 274   14:30   0.54   85.1    34   12.0   298    15.6   985.5    0.00 
 274   14:40   0.51   85.0    35   12.9   291    16.7   985.4    0.00 
 274   14:50   0.48   85.1    34   11.9   293    18.1   985.3    0.00 
 274   15:00   0.45   84.4    35   12.7   300    16.3   985.3    0.00 
 274   15:10   0.42   83.3    36   11.7   326    16.0   985.4    0.00 
 274   15:20   0.39   82.5    35   12.0   318    16.1   985.3    0.00 
 274   15:30   0.36   82.6    34   11.3   316    15.2   985.3    0.00 
 274   15:40   0.33   82.1    33   12.5   317    15.6   985.3    0.00 
 274   15:50   0.29   81.8    34   10.8   315    14.6   985.2    0.00 
 274   16:00   0.26   82.7    34    8.8   315    12.1   985.2    0.00 
 274   16:10   0.23   81.5    34   10.8   315    15.0   985.2    0.00 
 274   16:20   0.19   80.1    38   11.1   305    14.5   985.2    0.00 
 274   16:30   0.16   80.3    39    9.5   306    13.4   985.2    0.00 
 274   16:40   0.13   79.4    42    8.7   306    11.5   985.3    0.00 
 274   16:50   0.10   78.8    43    8.3   302    11.2   985.4    0.00 

Return to Elliot Chaparral Reserve graphs page.


Western Regional Climate Center,wrcc@dri.edu